createdAt,value
2018-02-13T00:00:53.053Z,15.40
2018-02-13T00:01:53.062Z,14.00
2018-02-13T00:02:53.070Z,17.00
2018-02-13T00:03:53.081Z,14.50
2018-02-13T00:04:53.090Z,18.30
2018-02-13T00:05:53.118Z,15.20
2018-02-13T00:06:53.112Z,15.50
2018-02-13T00:07:53.218Z,14.50
2018-02-13T00:08:53.130Z,17.70
2018-02-13T00:09:53.139Z,14.70
2018-02-13T00:10:53.148Z,14.10
2018-02-13T00:11:53.158Z,15.90
2018-02-13T00:12:53.168Z,19.40
2018-02-13T00:13:53.177Z,18.50
2018-02-13T00:14:53.185Z,15.00
2018-02-13T00:15:53.295Z,19.70
2018-02-13T00:16:53.205Z,20.00
2018-02-13T00:17:53.215Z,17.40
2018-02-13T00:18:53.224Z,14.80
2018-02-13T00:19:53.237Z,16.60
2018-02-13T00:20:53.244Z,17.40
2018-02-13T00:21:53.354Z,17.10
2018-02-13T00:22:53.264Z,15.20
2018-02-13T00:23:53.272Z,15.50
2018-02-13T00:24:53.283Z,15.40
2018-02-13T00:25:53.293Z,15.50
2018-02-13T00:26:53.301Z,16.60
2018-02-13T00:27:53.312Z,17.20
2018-02-13T00:28:53.321Z,16.90
2018-02-13T00:29:53.332Z,18.70
2018-02-13T00:30:53.340Z,15.30
2018-02-13T00:31:53.350Z,15.30
2018-02-13T00:32:53.412Z,13.30
2018-02-13T00:33:53.370Z,14.20
2018-02-13T00:34:53.379Z,14.80
2018-02-13T00:35:53.389Z,13.30
2018-02-13T00:36:53.397Z,15.10
2018-02-13T00:37:53.409Z,17.50
2018-02-13T00:38:53.418Z,15.60
2018-02-13T00:39:53.426Z,13.40
2018-02-13T00:40:53.437Z,16.80
2018-02-13T00:41:53.446Z,15.10
2018-02-13T00:42:53.455Z,14.10
2018-02-13T00:43:53.466Z,15.60
2018-02-13T00:44:53.475Z,11.90
2018-02-13T00:45:53.484Z,15.10
2018-02-13T00:46:53.493Z,16.20
2018-02-13T00:47:53.502Z,14.80
2018-02-13T00:48:53.513Z,14.20
2018-02-13T00:49:53.524Z,14.70
2018-02-13T00:50:53.531Z,19.70
2018-02-13T00:51:53.641Z,13.10
2018-02-13T00:52:53.551Z,13.00
2018-02-13T00:53:53.560Z,16.00
2018-02-13T00:54:53.569Z,14.10
2018-02-13T00:55:53.579Z,14.50
2018-02-13T00:56:53.589Z,13.30
2018-02-13T00:57:53.598Z,13.30
2018-02-13T00:58:53.608Z,14.40
2018-02-13T00:59:53.617Z,13.60
2018-02-13T01:00:53.727Z,13.80
2018-02-13T01:01:53.638Z,14.30
2018-02-13T01:02:53.645Z,16.30
2018-02-13T01:03:53.655Z,14.90
2018-02-13T01:04:53.664Z,14.70
2018-02-13T01:05:53.675Z,13.50
2018-02-13T01:06:53.683Z,14.20
2018-02-13T01:07:53.692Z,14.10
2018-02-13T01:08:53.703Z,14.10
2018-02-13T01:09:53.712Z,12.80
2018-02-13T01:10:53.723Z,14.10
2018-02-13T01:11:53.832Z,12.20
2018-02-13T01:12:53.739Z,16.20
2018-02-13T01:13:53.749Z,15.70
2018-02-13T01:14:53.759Z,13.40
2018-02-13T01:15:53.770Z,16.80
2018-02-13T01:16:53.778Z,15.00
2018-02-13T01:17:53.788Z,13.10
2018-02-13T01:18:53.796Z,12.60
2018-02-13T01:19:53.806Z,11.70
2018-02-13T01:20:53.816Z,12.60
2018-02-13T01:21:53.826Z,14.70
2018-02-13T01:22:53.834Z,13.60
2018-02-13T01:23:53.844Z,14.00
2018-02-13T01:24:53.855Z,14.60
2018-02-13T01:25:53.864Z,14.50
2018-02-13T01:26:53.872Z,15.40
2018-02-13T01:27:53.882Z,14.20
2018-02-13T01:28:53.892Z,13.60
2018-02-13T01:29:53.900Z,11.60
2018-02-13T01:30:53.911Z,17.20
2018-02-13T01:31:53.919Z,12.70
2018-02-13T01:32:53.929Z,14.40
2018-02-13T01:33:53.938Z,14.00
2018-02-13T01:34:53.946Z,13.10
2018-02-13T01:35:53.957Z,14.40
2018-02-13T01:36:53.967Z,13.90
2018-02-13T01:37:53.976Z,12.70
2018-02-13T01:38:53.986Z,13.40
2018-02-13T01:39:53.995Z,13.90
2018-02-13T01:40:54.005Z,18.50
2018-02-13T01:41:54.014Z,11.90
2018-02-13T01:42:54.024Z,13.40
2018-02-13T01:43:54.033Z,12.10
2018-02-13T01:44:54.048Z,14.10
2018-02-13T01:45:54.052Z,16.80
2018-02-13T01:46:54.061Z,10.50
2018-02-13T01:47:54.070Z,14.20
2018-02-13T01:48:54.080Z,11.90
2018-02-13T01:49:54.090Z,13.30
2018-02-13T01:50:54.097Z,13.00
2018-02-13T01:51:54.107Z,13.70
2018-02-13T01:52:54.117Z,15.90
2018-02-13T01:53:54.126Z,11.00
2018-02-13T01:54:54.135Z,13.60
2018-02-13T01:55:54.144Z,14.80
2018-02-13T01:56:54.154Z,13.10
2018-02-13T01:57:54.163Z,13.60
2018-02-13T01:58:54.172Z,11.10
2018-02-13T01:59:54.182Z,18.20
2018-02-13T02:00:54.191Z,13.00
2018-02-13T02:01:54.201Z,13.00
2018-02-13T02:02:54.213Z,13.00
2018-02-13T02:03:54.221Z,11.30
2018-02-13T02:04:54.229Z,11.80
2018-02-13T02:05:54.292Z,13.10
2018-02-13T02:06:54.246Z,12.20
2018-02-13T02:07:54.256Z,11.60
2018-02-13T02:08:54.266Z,11.20
2018-02-13T02:09:54.275Z,12.00
2018-02-13T02:10:54.284Z,12.60
2018-02-13T02:11:54.294Z,12.70
2018-02-13T02:12:54.304Z,15.80
2018-02-13T02:13:54.313Z,13.00
2018-02-13T02:14:54.476Z,13.10
2018-02-13T02:15:54.331Z,11.00
2018-02-13T02:16:54.339Z,16.10
2018-02-13T02:17:54.349Z,12.90
2018-02-13T02:18:54.359Z,11.10
2018-02-13T02:19:54.368Z,13.50
2018-02-13T02:20:54.378Z,12.50
2018-02-13T02:21:54.387Z,11.50
2018-02-13T02:22:54.396Z,12.30
2018-02-13T02:23:54.406Z,13.70
2018-02-13T02:24:54.414Z,11.50
2018-02-13T02:25:54.423Z,11.50
2018-02-13T02:26:54.432Z,13.30
2018-02-13T02:27:54.442Z,13.50
2018-02-13T02:28:54.453Z,13.50
2018-02-13T02:29:54.462Z,13.00
2018-02-13T02:30:54.470Z,12.20
2018-02-13T02:31:54.479Z,13.70
2018-02-13T02:32:54.490Z,11.20
2018-02-13T02:33:54.500Z,15.40
2018-02-13T02:34:54.507Z,11.30
2018-02-13T02:35:54.517Z,12.20
2018-02-13T02:36:54.526Z,13.30
2018-02-13T02:37:54.536Z,14.50
2018-02-13T02:38:54.546Z,12.80
2018-02-13T02:39:54.554Z,13.20
2018-02-13T02:40:54.563Z,12.30
2018-02-13T02:41:54.572Z,14.00
2018-02-13T02:42:54.582Z,10.30
2018-02-13T02:43:54.590Z,14.00
2018-02-13T02:44:54.602Z,12.40
2018-02-13T02:45:54.709Z,12.50
2018-02-13T02:46:54.619Z,11.60
2018-02-13T02:47:54.628Z,12.40
2018-02-13T02:48:54.636Z,11.60
2018-02-13T02:49:54.646Z,10.60
2018-02-13T02:50:54.657Z,13.20
2018-02-13T02:51:54.665Z,11.70
2018-02-13T02:52:54.675Z,13.70
2018-02-13T02:53:54.685Z,14.00
2018-02-13T02:54:54.694Z,11.90
2018-02-13T02:55:54.703Z,12.60
2018-02-13T02:56:54.712Z,11.00
2018-02-13T02:57:54.722Z,10.90
2018-02-13T02:58:54.731Z,12.20
2018-02-13T02:59:54.741Z,11.30
2018-02-13T03:00:54.756Z,12.40
2018-02-13T03:01:54.759Z,13.00
2018-02-13T03:02:54.868Z,13.40
2018-02-13T03:03:54.778Z,10.60
2018-02-13T03:04:54.790Z,10.30
2018-02-13T03:05:54.795Z,10.70
2018-02-13T03:06:54.905Z,13.80
2018-02-13T03:07:54.814Z,9.80
2018-02-13T03:08:54.823Z,13.80
2018-02-13T03:09:54.832Z,9.80
2018-02-13T03:10:54.841Z,10.10
2018-02-13T03:11:54.950Z,13.80
2018-02-13T03:12:54.860Z,10.20
2018-02-13T03:13:54.871Z,11.70
2018-02-13T03:14:54.877Z,10.00
2018-02-13T03:15:54.887Z,10.40
2018-02-13T03:16:54.941Z,11.80
2018-02-13T03:17:54.906Z,11.00
2018-02-13T03:18:54.914Z,10.40
2018-02-13T03:19:54.925Z,13.60
2018-02-13T03:20:54.934Z,11.40
2018-02-13T03:21:54.943Z,9.60
2018-02-13T03:22:54.952Z,9.60
2018-02-13T03:23:54.963Z,9.90
2018-02-13T03:24:54.970Z,10.40
2018-02-13T03:25:54.981Z,10.60
2018-02-13T03:26:54.989Z,12.90
2018-02-13T03:27:55.001Z,12.70
2018-02-13T03:28:55.009Z,12.30
2018-02-13T03:29:55.019Z,8.80
2018-02-13T03:30:55.027Z,11.60
2018-02-13T03:31:55.136Z,11.00
2018-02-13T03:32:55.046Z,13.60
2018-02-13T03:33:55.055Z,10.60
2018-02-13T03:34:55.063Z,10.70
2018-02-13T03:35:55.073Z,10.10
2018-02-13T03:36:55.083Z,10.20
2018-02-13T03:37:55.092Z,11.90
2018-02-13T03:38:55.102Z,12.00
2018-02-13T03:39:55.111Z,8.80
2018-02-13T03:40:55.121Z,10.60
2018-02-13T03:41:55.131Z,9.50
2018-02-13T03:42:55.138Z,10.90
2018-02-13T03:43:55.148Z,10.20
2018-02-13T03:44:55.158Z,10.60
2018-02-13T03:45:55.167Z,11.70
2018-02-13T03:46:55.177Z,13.40
2018-02-13T03:47:55.187Z,8.80
2018-02-13T03:48:55.195Z,11.00
2018-02-13T03:49:55.204Z,9.00
2018-02-13T03:50:55.315Z,11.20
2018-02-13T03:51:55.226Z,11.70
2018-02-13T03:52:55.234Z,14.20
2018-02-13T03:53:55.244Z,10.90
2018-02-13T03:54:55.252Z,11.90
2018-02-13T03:55:55.261Z,8.80
2018-02-13T03:56:55.273Z,11.60
2018-02-13T03:57:55.280Z,9.50
2018-02-13T03:58:55.291Z,10.70
2018-02-13T03:59:55.298Z,11.40
2018-02-13T04:00:55.310Z,11.90
2018-02-13T04:01:55.319Z,12.80
2018-02-13T04:02:55.328Z,8.60
2018-02-13T04:03:55.336Z,12.00
2018-02-13T04:04:55.348Z,12.50
2018-02-13T04:05:55.357Z,9.70
2018-02-13T04:06:55.369Z,10.90
2018-02-13T04:07:55.375Z,13.00
2018-02-13T04:08:55.386Z,14.70
2018-02-13T04:09:55.395Z,10.30
2018-02-13T04:10:55.404Z,14.80
2018-02-13T04:11:55.413Z,9.60
2018-02-13T04:12:55.423Z,13.40
2018-02-13T04:13:55.433Z,10.80
2018-02-13T04:14:55.441Z,12.90
2018-02-13T04:15:55.451Z,12.50
2018-02-13T04:16:55.463Z,11.70
2018-02-13T04:17:55.471Z,12.50
2018-02-13T04:18:55.481Z,12.20
2018-02-13T04:19:55.492Z,14.50
2018-02-13T04:20:55.500Z,12.00
2018-02-13T04:21:55.509Z,12.90
2018-02-13T04:22:55.521Z,11.80
2018-02-13T04:23:55.630Z,13.20
2018-02-13T04:24:55.539Z,10.20
2018-02-13T04:25:55.547Z,10.80
2018-02-13T04:26:55.557Z,11.20
2018-02-13T04:27:55.566Z,14.70
2018-02-13T04:28:55.577Z,12.50
2018-02-13T04:29:55.688Z,8.50
2018-02-13T04:30:55.600Z,13.80
2018-02-13T04:31:55.607Z,9.90
2018-02-13T04:32:55.618Z,8.40
2018-02-13T04:33:55.626Z,8.70
2018-02-13T04:34:55.636Z,12.10
2018-02-13T04:35:55.643Z,10.20
2018-02-13T04:36:55.657Z,10.90
2018-02-13T04:37:55.665Z,10.00
2018-02-13T04:38:55.675Z,9.30
2018-02-13T04:39:55.685Z,10.10
2018-02-13T04:40:55.693Z,12.20
2018-02-13T04:41:55.704Z,11.80
2018-02-13T04:42:55.709Z,10.20
2018-02-13T04:43:55.721Z,9.50
2018-02-13T04:44:55.731Z,13.90
2018-02-13T04:45:55.741Z,10.00
2018-02-13T04:46:55.749Z,12.80
2018-02-13T04:47:55.758Z,11.40
2018-02-13T04:48:55.769Z,11.70
2018-02-13T04:49:55.779Z,11.30
2018-02-13T04:50:55.888Z,10.90
2018-02-13T04:51:55.797Z,11.70
2018-02-13T04:52:55.809Z,11.50
2018-02-13T04:53:55.817Z,10.70
2018-02-13T04:54:55.825Z,9.60
2018-02-13T04:55:55.833Z,15.50
2018-02-13T04:56:55.844Z,10.80
2018-02-13T04:57:55.853Z,11.60
2018-02-13T04:58:55.861Z,12.70
2018-02-13T04:59:55.871Z,13.00
2018-02-13T05:00:55.881Z,10.20
2018-02-13T05:01:55.891Z,10.20
2018-02-13T05:02:55.906Z,13.20
2018-02-13T05:03:55.910Z,13.10
2018-02-13T05:04:55.921Z,12.70
2018-02-13T05:05:55.930Z,13.30
2018-02-13T05:06:55.938Z,12.90
2018-02-13T05:07:55.947Z,12.00
2018-02-13T05:08:55.962Z,11.00
2018-02-13T05:09:55.966Z,10.70
2018-02-13T05:10:55.975Z,13.00
2018-02-13T05:11:55.984Z,15.00
2018-02-13T05:12:55.994Z,13.10
2018-02-13T05:13:56.004Z,12.60
2018-02-13T05:14:56.014Z,15.20
2018-02-13T05:15:56.022Z,11.70
2018-02-13T05:16:56.133Z,12.00
2018-02-13T05:17:56.041Z,10.50
2018-02-13T05:18:56.049Z,11.90
2018-02-13T05:19:56.059Z,11.20
2018-02-13T05:20:56.069Z,13.90
2018-02-13T05:21:56.080Z,9.90
2018-02-13T05:22:56.087Z,8.30
2018-02-13T05:23:56.098Z,13.20
2018-02-13T05:24:56.111Z,10.20
2018-02-13T05:25:56.114Z,14.40
2018-02-13T05:26:56.175Z,11.30
2018-02-13T05:27:56.133Z,14.60
2018-02-13T05:28:56.144Z,12.50
2018-02-13T05:29:56.154Z,10.40
2018-02-13T05:30:56.171Z,12.80
2018-02-13T05:31:56.172Z,13.10
2018-02-13T05:32:56.182Z,13.30
2018-02-13T05:33:56.192Z,9.60
2018-02-13T05:34:56.300Z,12.60
2018-02-13T05:35:56.208Z,11.90
2018-02-13T05:36:56.221Z,9.40
2018-02-13T05:37:56.229Z,10.20
2018-02-13T05:38:56.237Z,11.90
2018-02-13T05:39:56.245Z,11.90
2018-02-13T05:40:56.256Z,11.10
2018-02-13T05:41:56.266Z,13.90
2018-02-13T05:42:56.274Z,15.00
2018-02-13T05:43:56.284Z,12.90
2018-02-13T05:44:56.292Z,10.20
2018-02-13T05:45:56.302Z,12.60
2018-02-13T05:46:56.311Z,12.00
2018-02-13T05:47:56.335Z,12.60
2018-02-13T05:48:56.332Z,12.70
2018-02-13T05:49:56.339Z,11.90
2018-02-13T05:50:56.386Z,10.70
2018-02-13T05:51:56.358Z,12.20
2018-02-13T05:52:56.368Z,14.50
2018-02-13T05:53:56.378Z,13.70
2018-02-13T05:54:56.385Z,13.30
2018-02-13T05:55:56.396Z,12.20
2018-02-13T05:56:56.405Z,11.80
2018-02-13T05:57:56.413Z,13.20
2018-02-13T05:58:56.423Z,15.10
2018-02-13T05:59:56.433Z,11.40
2018-02-13T06:00:56.442Z,16.40
2018-02-13T06:01:56.552Z,9.40
2018-02-13T06:02:56.459Z,9.30
2018-02-13T06:03:56.469Z,12.00
2018-02-13T06:04:56.477Z,13.60
2018-02-13T06:05:56.489Z,12.20
2018-02-13T06:06:56.548Z,13.70
2018-02-13T06:07:56.506Z,10.70
2018-02-13T06:08:56.615Z,10.30
2018-02-13T06:09:56.525Z,11.80
2018-02-13T06:10:56.532Z,13.20
2018-02-13T06:11:56.543Z,12.30
2018-02-13T06:12:56.553Z,11.80
2018-02-13T06:13:56.562Z,10.50
2018-02-13T06:14:56.576Z,13.00
2018-02-13T06:15:56.579Z,12.70
2018-02-13T06:16:56.695Z,12.80
2018-02-13T06:17:56.598Z,11.90
2018-02-13T06:18:56.609Z,9.60
2018-02-13T06:19:56.622Z,12.60
2018-02-13T06:20:56.627Z,11.20
2018-02-13T06:21:56.636Z,13.60
2018-02-13T06:22:56.795Z,14.70
2018-02-13T06:23:56.654Z,12.60
2018-02-13T06:24:56.764Z,13.70
2018-02-13T06:25:56.773Z,13.30
2018-02-13T06:26:56.682Z,10.10
2018-02-13T06:27:56.699Z,11.40
2018-02-13T06:28:56.697Z,10.20
2018-02-13T06:29:56.703Z,10.40
2018-02-13T06:30:56.712Z,11.80
2018-02-13T06:31:56.821Z,10.80
2018-02-13T06:32:56.831Z,12.40
2018-02-13T06:33:56.741Z,10.40
2018-02-13T06:34:56.749Z,11.80
2018-02-13T06:35:56.757Z,9.50
2018-02-13T06:36:56.767Z,12.00
2018-02-13T06:37:56.777Z,11.30
2018-02-13T06:38:56.787Z,10.90
2018-02-13T06:39:56.896Z,8.50
2018-02-13T06:40:56.806Z,11.80
2018-02-13T06:41:56.818Z,9.60
2018-02-13T06:42:56.824Z,11.10
2018-02-13T06:43:56.834Z,11.40
2018-02-13T06:44:56.843Z,9.70
2018-02-13T06:45:56.852Z,11.50
2018-02-13T06:46:56.861Z,13.10
2018-02-13T06:47:56.871Z,10.30
2018-02-13T06:48:56.881Z,9.90
2018-02-13T06:49:56.890Z,11.70
2018-02-13T06:50:56.898Z,10.80
2018-02-13T06:51:56.907Z,10.70
2018-02-13T06:52:56.918Z,13.40
2018-02-13T06:53:56.927Z,9.70
2018-02-13T06:54:56.933Z,11.20
2018-02-13T06:55:56.944Z,10.80
2018-02-13T06:56:56.955Z,11.10
2018-02-13T06:57:56.964Z,11.40
2018-02-13T06:58:56.975Z,10.20
2018-02-13T06:59:56.983Z,10.80
2018-02-13T07:00:57.042Z,9.30
2018-02-13T07:01:57.001Z,7.70
2018-02-13T07:02:57.009Z,12.90
2018-02-13T07:03:57.020Z,11.40
2018-02-13T07:04:57.029Z,10.00
2018-02-13T07:05:57.039Z,9.60
2018-02-13T07:06:57.048Z,12.60
2018-02-13T07:07:57.057Z,9.80
2018-02-13T07:08:57.067Z,9.20
2018-02-13T07:09:57.081Z,11.10
2018-02-13T07:10:57.086Z,11.50
2018-02-13T07:11:57.092Z,13.10
2018-02-13T07:12:57.108Z,11.80
2018-02-13T07:13:57.115Z,10.10
2018-02-13T07:14:57.122Z,9.30
2018-02-13T07:15:57.132Z,12.10
2018-02-13T07:16:57.142Z,9.00
2018-02-13T07:17:57.151Z,11.00
2018-02-13T07:18:57.159Z,10.20
2018-02-13T07:19:57.169Z,10.70
2018-02-13T07:20:57.179Z,12.80
2018-02-13T07:21:57.190Z,7.80
2018-02-13T07:22:57.197Z,10.40
2018-02-13T07:23:57.207Z,10.80
2018-02-13T07:24:57.318Z,9.90
2018-02-13T07:25:57.227Z,11.60
2018-02-13T07:26:57.234Z,8.60
2018-02-13T07:27:57.244Z,11.20
2018-02-13T07:28:57.254Z,10.50
2018-02-13T07:29:57.264Z,10.50
2018-02-13T07:30:57.265Z,11.80
2018-02-13T07:31:57.277Z,10.90
2018-02-13T07:32:57.280Z,7.70
2018-02-13T07:33:57.391Z,10.10
2018-02-13T07:34:57.298Z,11.20
2018-02-13T07:35:57.320Z,11.80
2018-02-13T07:36:57.318Z,9.60
2018-02-13T07:37:57.328Z,10.50
2018-02-13T07:38:57.335Z,12.40
2018-02-13T07:39:57.346Z,12.10
2018-02-13T07:40:57.456Z,10.60
2018-02-13T07:41:57.378Z,11.10
2018-02-13T07:42:57.389Z,12.30
2018-02-13T07:43:57.385Z,9.90
2018-02-13T07:44:57.395Z,9.10
2018-02-13T07:45:57.405Z,10.90
2018-02-13T07:46:57.524Z,9.00
2018-02-13T07:47:57.432Z,12.40
2018-02-13T07:48:57.971Z,9.70
2018-02-13T07:49:57.440Z,9.80
2018-02-13T07:50:57.461Z,10.10
2018-02-13T07:51:57.460Z,11.40
2018-02-13T07:52:57.468Z,11.10
2018-02-13T07:53:57.488Z,7.90
2018-02-13T07:54:57.599Z,8.20
2018-02-13T07:55:57.500Z,10.10
2018-02-13T07:56:57.507Z,13.40
2018-02-13T07:57:57.528Z,11.80
2018-02-13T07:58:57.524Z,7.20
2018-02-13T07:59:57.536Z,9.30
2018-02-13T08:00:57.543Z,10.30
2018-02-13T08:01:57.556Z,9.60
2018-02-13T08:02:57.662Z,10.50
2018-02-13T08:03:57.573Z,10.30
2018-02-13T08:04:57.583Z,10.00
2018-02-13T08:05:57.592Z,9.80
2018-02-13T08:06:57.602Z,10.80
2018-02-13T08:07:57.711Z,9.10
2018-02-13T08:09:58.328Z,7.30
2018-02-13T08:10:58.555Z,9.60
2018-02-13T08:11:57.649Z,11.20
2018-02-13T08:13:02.164Z,10.10
2018-02-13T08:13:57.668Z,10.80
2018-02-13T08:14:57.790Z,9.30
2018-02-13T08:15:57.691Z,11.20
2018-02-13T08:16:57.710Z,9.10
2018-02-13T08:17:57.711Z,8.20
2018-02-13T08:18:57.823Z,8.40
2018-02-13T08:19:57.729Z,9.50
2018-02-13T08:20:57.739Z,8.30
2018-02-13T08:21:57.747Z,9.50
2018-02-13T08:22:57.755Z,8.30
2018-02-13T08:23:57.765Z,10.10
2018-02-13T08:24:58.163Z,7.20
2018-02-13T08:25:57.785Z,10.70
2018-02-13T08:26:57.794Z,10.80
2018-02-13T08:27:57.815Z,10.50
2018-02-13T08:28:57.814Z,7.50
2018-02-13T08:29:57.828Z,7.40
2018-02-13T08:30:58.188Z,8.30
2018-02-13T08:31:57.843Z,9.80
2018-02-13T08:32:57.854Z,8.00
2018-02-13T08:33:57.877Z,8.40
2018-02-13T08:34:57.974Z,10.70
2018-02-13T08:35:57.883Z,10.50
2018-02-13T08:36:57.904Z,7.60
2018-02-13T08:37:57.911Z,9.80
2018-02-13T08:38:57.908Z,8.80
2018-02-13T08:39:57.922Z,8.70
2018-02-13T08:40:57.929Z,8.40
2018-02-13T08:41:58.040Z,8.70
2018-02-13T08:42:58.060Z,8.60
2018-02-13T08:43:57.959Z,11.20
2018-02-13T08:44:57.971Z,10.80
2018-02-13T08:45:57.988Z,9.50
2018-02-13T08:46:57.986Z,9.10
2018-02-13T08:47:58.009Z,8.40
2018-02-13T08:48:58.007Z,8.60
2018-02-13T08:49:58.033Z,7.50
2018-02-13T08:50:58.028Z,8.60
2018-02-13T08:51:58.038Z,8.90
2018-02-13T08:53:58.059Z,8.50
2018-02-13T08:54:58.078Z,6.00
2018-02-13T08:55:58.090Z,8.70
2018-02-13T08:56:58.188Z,9.70
2018-02-13T08:57:58.102Z,10.70
2018-02-13T08:58:58.108Z,8.40
2018-02-13T08:59:58.118Z,7.90
2018-02-13T09:00:58.129Z,7.50
2018-02-13T09:01:58.139Z,10.50
2018-02-13T09:02:58.147Z,8.70
2018-02-13T09:03:58.158Z,12.90
2018-02-13T09:04:58.171Z,8.10
2018-02-13T09:05:58.178Z,8.10
2018-02-13T09:06:58.188Z,8.30
2018-02-13T09:07:58.209Z,8.60
2018-02-13T09:08:58.208Z,8.20
2018-02-13T09:09:58.220Z,7.60
2018-02-13T09:10:58.240Z,9.20
2018-02-13T09:11:58.241Z,9.10
2018-02-13T09:12:58.249Z,10.10
2018-02-13T09:13:58.260Z,11.30
2018-02-13T09:14:58.269Z,7.90
2018-02-13T09:15:58.280Z,8.10
2018-02-13T09:16:58.292Z,10.10
2018-02-13T09:17:58.303Z,10.00
2018-02-13T09:18:58.313Z,11.50
2018-02-13T09:19:58.321Z,7.30
2018-02-13T09:20:58.332Z,7.50
2018-02-13T09:21:58.343Z,10.20
2018-02-13T09:22:58.352Z,8.70
2018-02-13T09:23:58.363Z,8.00
2018-02-13T09:24:58.373Z,11.20
2018-02-13T09:25:58.385Z,8.50
2018-02-13T09:26:58.394Z,8.90
2018-02-13T09:27:58.405Z,7.30
2018-02-13T09:28:58.416Z,9.10
2018-02-13T09:29:58.441Z,8.60
2018-02-13T09:30:58.435Z,7.90
2018-02-13T09:31:58.447Z,8.80
2018-02-13T09:32:58.458Z,10.80
2018-02-13T09:33:58.469Z,9.10
2018-02-13T09:34:58.479Z,7.50
2018-02-13T09:35:58.489Z,7.00
2018-02-13T09:36:58.599Z,8.10
2018-02-13T09:37:58.523Z,8.90
2018-02-13T09:38:58.531Z,11.40
2018-02-13T09:39:58.543Z,10.60
2018-02-13T09:40:58.542Z,15.00
2018-02-13T09:41:58.552Z,31.10
2018-02-13T09:42:58.675Z,9.10
2018-02-13T09:43:58.582Z,8.80
2018-02-13T09:44:58.592Z,9.60
2018-02-13T09:45:58.605Z,9.40
2018-02-13T09:46:58.604Z,9.50
2018-02-13T09:47:58.614Z,9.50
2018-02-13T09:48:58.625Z,11.70
2018-02-13T09:49:58.636Z,10.20
2018-02-13T09:50:58.745Z,10.90
2018-02-13T09:51:58.656Z,12.70
2018-02-13T09:52:58.668Z,10.00
2018-02-13T09:53:58.679Z,9.50
2018-02-13T09:54:58.689Z,10.60
2018-02-13T09:55:58.699Z,6.90
2018-02-13T09:56:58.710Z,9.30
2018-02-13T09:57:58.723Z,7.70
2018-02-13T09:58:58.731Z,11.30
2018-02-13T09:59:58.742Z,8.10
2018-02-13T10:00:58.753Z,10.80
2018-02-13T10:01:58.765Z,12.40
2018-02-13T10:02:58.875Z,8.70
2018-02-13T10:03:58.785Z,9.30
2018-02-13T10:04:58.801Z,9.40
2018-02-13T10:05:58.807Z,7.30
2018-02-13T10:06:58.818Z,7.80
2018-02-13T10:07:58.929Z,8.00
2018-02-13T10:08:58.840Z,7.90
2018-02-13T10:09:58.851Z,9.90
2018-02-13T10:10:58.862Z,8.00
2018-02-13T10:11:58.872Z,8.80
2018-02-13T10:12:58.884Z,6.50
2018-02-13T10:13:58.895Z,12.50
2018-02-13T10:14:58.906Z,7.30
2018-02-13T10:15:58.917Z,10.50
2018-02-13T10:16:58.928Z,9.10
2018-02-13T10:17:58.950Z,8.30
2018-02-13T10:18:58.962Z,8.10
2018-02-13T10:19:58.961Z,9.60
2018-02-13T10:20:58.972Z,7.80
2018-02-13T10:21:58.982Z,7.60
2018-02-13T10:22:58.994Z,15.10
2018-02-13T10:23:59.005Z,7.80
2018-02-13T10:24:59.026Z,8.70
2018-02-13T10:25:59.028Z,8.10
2018-02-13T10:26:59.038Z,9.10
2018-02-13T10:27:59.050Z,10.00
2018-02-13T10:28:59.061Z,10.10
2018-02-13T10:29:59.071Z,9.90
2018-02-13T10:30:59.088Z,10.80
2018-02-13T10:31:59.130Z,7.20
2018-02-13T10:32:59.105Z,8.70
2018-02-13T10:33:59.122Z,8.30
2018-02-13T10:34:59.226Z,7.90
2018-02-13T10:35:59.238Z,10.80
2018-02-13T10:36:59.149Z,11.70
2018-02-13T10:37:59.261Z,9.80
2018-02-13T10:38:59.182Z,8.50
2018-02-13T10:39:59.181Z,9.70
2018-02-13T10:40:59.194Z,9.90
2018-02-13T10:41:59.205Z,9.00
2018-02-13T10:42:59.214Z,8.50
2018-02-13T10:43:59.228Z,8.30
2018-02-13T10:44:59.238Z,13.00
2018-02-13T10:45:59.247Z,8.70
2018-02-13T10:46:59.261Z,8.50
2018-02-13T10:47:59.308Z,7.70
2018-02-13T10:48:59.383Z,8.90
2018-02-13T10:49:59.310Z,9.70
2018-02-13T10:50:59.428Z,8.40
2018-02-13T10:51:59.326Z,9.30
2018-02-13T10:52:59.327Z,7.80
2018-02-13T10:53:59.339Z,9.50
2018-02-13T10:54:59.350Z,8.60
2018-02-13T10:55:59.361Z,9.20
2018-02-13T10:56:59.623Z,8.90
2018-02-13T10:57:59.894Z,9.00
2018-02-13T10:58:59.642Z,9.10
2018-02-13T10:59:59.941Z,10.20
2018-02-13T11:00:59.634Z,7.50
2018-02-13T11:02:59.639Z,7.50
2018-02-13T11:03:59.464Z,8.70
2018-02-13T11:04:59.463Z,10.80
2018-02-13T11:05:59.477Z,8.10
2018-02-13T11:06:59.497Z,13.00
2018-02-13T11:07:59.495Z,10.00
2018-02-13T11:08:59.520Z,8.10
2018-02-13T11:09:59.520Z,7.90
2018-02-13T11:10:59.530Z,7.40
2018-02-13T11:11:59.543Z,9.50
2018-02-13T11:12:59.557Z,10.70
2018-02-13T11:13:59.565Z,9.20
2018-02-13T11:14:59.579Z,8.10
2018-02-13T11:15:59.589Z,6.80
2018-02-13T11:16:59.601Z,7.80
2018-02-13T11:17:59.668Z,10.50
2018-02-13T11:18:59.634Z,9.70
2018-02-13T11:19:59.635Z,9.90
2018-02-13T11:20:59.646Z,8.40
2018-02-13T11:21:59.658Z,7.60
2018-02-13T11:22:59.681Z,8.00
2018-02-13T11:23:59.693Z,8.10
2018-02-13T11:24:59.695Z,10.80
2018-02-13T11:25:59.705Z,8.60
2018-02-13T11:26:59.717Z,10.10
2018-02-13T11:27:59.748Z,8.60
2018-02-13T11:28:59.809Z,7.80
2018-02-13T11:29:59.760Z,9.20
2018-02-13T11:30:59.777Z,8.00
2018-02-13T11:31:59.774Z,10.10
2018-02-13T11:32:59.786Z,8.80
2018-02-13T11:33:59.801Z,8.60
2018-02-13T11:34:59.809Z,9.80
2018-02-13T11:35:59.831Z,7.50
2018-02-13T11:36:59.832Z,7.70
2018-02-13T11:37:59.857Z,8.60
2018-02-13T11:38:59.857Z,8.70
2018-02-13T11:39:59.868Z,9.50
2018-02-13T11:40:59.881Z,9.60
2018-02-13T11:41:59.894Z,9.30
2018-02-13T11:42:59.904Z,7.60
2018-02-13T11:43:59.917Z,8.20
2018-02-13T11:44:59.939Z,4.80
2018-02-13T11:45:59.953Z,8.30
2018-02-13T11:47:00.081Z,9.30
2018-02-13T11:47:59.979Z,7.70
2018-02-13T11:48:59.976Z,7.20
2018-02-13T11:49:59.991Z,8.80
2018-02-13T11:50:59.999Z,7.80
2018-02-13T11:52:00.029Z,8.70
2018-02-13T11:53:00.026Z,6.60
2018-02-13T11:54:00.036Z,6.40
2018-02-13T11:55:00.066Z,8.80
2018-02-13T11:56:00.060Z,7.50
2018-02-13T11:57:00.083Z,11.20
2018-02-13T11:58:00.133Z,7.20
2018-02-13T11:59:00.098Z,8.80
2018-02-13T12:00:00.117Z,6.60
2018-02-13T12:01:00.132Z,9.30
2018-02-13T12:02:00.132Z,10.50
2018-02-13T12:03:00.143Z,8.10
2018-02-13T12:04:00.155Z,9.40
2018-02-13T12:05:00.167Z,8.80
2018-02-13T12:07:00.190Z,10.50
2018-02-13T12:08:00.202Z,6.60
2018-02-13T12:09:00.213Z,6.90
2018-02-13T12:10:00.226Z,7.50
2018-02-13T12:11:00.237Z,7.50
2018-02-13T12:12:00.249Z,7.90
2018-02-13T12:13:00.313Z,7.00
2018-02-13T12:14:00.539Z,8.70
2018-02-13T12:15:00.297Z,8.40
2018-02-13T12:17:00.321Z,8.50
2018-02-13T12:18:00.320Z,7.60
2018-02-13T12:19:00.343Z,9.10
2018-02-13T12:20:00.355Z,8.50
2018-02-13T12:21:00.367Z,7.60
2018-02-13T12:22:00.368Z,6.90
2018-02-13T12:23:00.378Z,6.70
2018-02-13T12:24:00.403Z,5.60
2018-02-13T12:25:00.404Z,5.90
2018-02-13T12:26:00.419Z,8.50
2018-02-13T12:27:00.439Z,9.30
2018-02-13T12:28:00.441Z,4.70
2018-02-13T12:29:00.464Z,6.00
2018-02-13T12:30:00.465Z,7.20
2018-02-13T12:31:00.477Z,6.90
2018-02-13T12:32:00.490Z,7.00
2018-02-13T12:33:00.503Z,5.30
2018-02-13T12:34:00.525Z,9.00
2018-02-13T12:35:00.528Z,7.80
2018-02-13T12:36:00.539Z,6.50
2018-02-13T12:37:00.551Z,5.30
2018-02-13T12:38:00.561Z,6.10
2018-02-13T12:39:00.575Z,5.50
2018-02-13T12:40:00.686Z,8.20
2018-02-13T12:41:00.600Z,6.80
2018-02-13T12:42:00.612Z,5.60
2018-02-13T12:43:00.624Z,6.40
2018-02-13T12:44:00.636Z,6.20
2018-02-13T12:45:00.748Z,8.60
2018-02-13T12:46:00.660Z,6.30
2018-02-13T12:47:00.673Z,8.60
2018-02-13T12:48:00.684Z,7.10
2018-02-13T12:49:00.700Z,9.20
2018-02-13T12:50:00.725Z,7.60
2018-02-13T12:51:00.733Z,6.20
2018-02-13T12:52:00.735Z,6.10
2018-02-13T12:53:00.757Z,8.70
2018-02-13T12:54:00.759Z,6.60
2018-02-13T12:55:00.770Z,8.10
2018-02-13T12:56:00.782Z,7.40
2018-02-13T12:57:00.796Z,9.90
2018-02-13T12:58:00.809Z,6.40
2018-02-13T12:59:00.820Z,5.20
2018-02-13T13:00:00.837Z,7.20
2018-02-13T13:01:00.846Z,9.20
2018-02-13T13:02:00.859Z,8.00
2018-02-13T13:03:00.869Z,6.30
2018-02-13T13:04:00.881Z,8.30
2018-02-13T13:05:00.945Z,6.80
2018-02-13T13:06:01.748Z,7.10
2018-02-13T13:07:00.919Z,6.80
2018-02-13T13:09:00.956Z,8.00